createdAt,value
2018-04-25T00:02:31.498Z,15.00
2018-04-25T00:05:34.792Z,15.03
2018-04-25T00:08:38.273Z,14.97
2018-04-25T00:11:42.176Z,14.99
2018-04-25T00:14:45.493Z,15.03
2018-04-25T00:17:49.927Z,15.06
2018-04-25T00:20:54.207Z,15.08
2018-04-25T00:23:58.539Z,15.08
2018-04-25T00:27:02.011Z,15.03
2018-04-25T00:30:05.291Z,14.99
2018-04-25T00:33:08.657Z,14.97
2018-04-25T00:36:12.880Z,14.95
2018-04-25T00:39:16.195Z,14.94
2018-04-25T00:42:19.504Z,14.96
2018-04-25T00:45:22.781Z,14.95
2018-04-25T00:48:27.192Z,14.94
2018-04-25T00:51:30.522Z,14.92
2018-04-25T00:54:33.868Z,14.93
2018-04-25T00:57:38.313Z,14.97
2018-04-25T01:00:42.386Z,14.90
2018-04-25T01:03:45.748Z,14.85
2018-04-25T01:06:50.056Z,14.86
2018-04-25T01:09:53.348Z,14.74
2018-04-25T01:12:56.749Z,14.50
2018-04-25T01:16:00.254Z,14.48
2018-04-25T01:19:03.601Z,14.49
2018-04-25T01:22:06.948Z,14.42
2018-04-25T01:25:10.309Z,14.35
2018-04-25T01:28:14.672Z,14.34
2018-04-25T01:31:18.547Z,14.31
2018-04-25T01:34:22.273Z,14.32
2018-04-25T01:37:31.156Z,14.31
2018-04-25T01:40:34.492Z,14.34
2018-04-25T01:43:37.865Z,14.45
2018-04-25T01:46:43.228Z,14.42
2018-04-25T01:49:46.636Z,14.51
2018-04-25T01:53:01.249Z,14.55
2018-04-25T01:56:15.772Z,14.58
2018-04-25T01:59:30.356Z,14.58
2018-04-25T02:02:36.928Z,14.57
2018-04-25T02:05:40.174Z,14.60
2018-04-25T02:08:44.706Z,14.62
2018-04-25T02:11:48.009Z,14.55
2018-04-25T02:14:51.408Z,14.60
2018-04-25T02:17:54.808Z,14.58
2018-04-25T02:20:58.112Z,14.51
2018-04-25T02:24:02.531Z,14.43
2018-04-25T02:27:05.820Z,14.39
2018-04-25T02:30:09.150Z,14.42
2018-04-25T02:33:13.252Z,14.54
2018-04-25T02:36:16.640Z,14.55
2018-04-25T02:39:19.935Z,14.55
2018-04-25T02:42:23.283Z,14.57
2018-04-25T02:45:26.627Z,14.58
2018-04-25T02:48:29.964Z,14.64
2018-04-25T02:51:33.292Z,14.65
2018-04-25T02:54:36.625Z,14.71
2018-04-25T02:57:39.922Z,14.71
2018-04-25T03:00:44.355Z,14.71
2018-04-25T03:03:47.744Z,14.66
2018-04-25T03:06:51.001Z,14.65
2018-04-25T03:09:54.299Z,14.62
2018-04-25T03:12:57.609Z,14.60
2018-04-25T03:16:01.317Z,14.51
2018-04-25T03:19:04.640Z,14.46
2018-04-25T03:22:08.040Z,14.46
2018-04-25T03:25:11.936Z,14.50
2018-04-25T03:28:15.187Z,14.50
2018-04-25T03:31:18.838Z,14.55
2018-04-25T03:34:22.155Z,14.52
2018-04-25T03:37:25.452Z,14.47
2018-04-25T03:40:28.888Z,14.45
2018-04-25T03:43:32.264Z,14.45
2018-04-25T03:46:35.446Z,14.43
2018-04-25T03:49:38.841Z,14.40
2018-04-25T03:52:42.775Z,14.38
2018-04-25T03:55:47.188Z,14.32
2018-04-25T03:58:50.586Z,14.29
2018-04-25T04:01:53.893Z,14.32
2018-04-25T04:04:57.235Z,14.28
2018-04-25T04:08:00.484Z,14.24
2018-04-25T04:11:04.833Z,14.16
2018-04-25T04:14:08.103Z,14.22
2018-04-25T04:17:12.286Z,14.25
2018-04-25T04:20:15.530Z,14.18
2018-04-25T04:23:19.108Z,14.23
2018-04-25T04:26:22.601Z,14.19
2018-04-25T04:29:26.112Z,14.22
2018-04-25T04:32:30.030Z,14.24
2018-04-25T04:35:33.581Z,14.22
2018-04-25T04:38:37.264Z,14.19
2018-04-25T04:41:41.123Z,14.25
2018-04-25T04:44:45.265Z,14.28
2018-04-25T04:47:49.589Z,14.32
2018-04-25T04:50:53.251Z,14.38
2018-04-25T04:53:56.924Z,14.44
2018-04-25T04:57:00.323Z,14.48
2018-04-25T05:00:04.196Z,14.41
2018-04-25T05:03:07.720Z,14.42
2018-04-25T05:06:11.366Z,14.48
2018-04-25T05:09:15.302Z,14.53
2018-04-25T05:12:18.816Z,14.57
2018-04-25T05:15:22.389Z,14.63
2018-04-25T05:18:25.927Z,14.64
2018-04-25T05:21:29.471Z,14.58
2018-04-25T05:24:33.385Z,14.56
2018-04-25T05:27:36.580Z,14.63
2018-04-25T05:30:39.976Z,14.65
2018-04-25T05:33:43.291Z,14.70
2018-04-25T05:36:46.623Z,14.72
2018-04-25T05:39:49.752Z,14.69
2018-04-25T05:42:53.909Z,14.74
2018-04-25T05:45:57.385Z,14.83
2018-04-25T05:49:00.582Z,14.96
2018-04-25T05:52:03.889Z,15.04
2018-04-25T05:55:07.317Z,15.03
2018-04-25T05:58:10.677Z,15.14
2018-04-25T06:01:13.997Z,15.28
2018-04-25T06:04:17.339Z,15.35
2018-04-25T06:07:21.649Z,15.45
2018-04-25T06:10:25.049Z,15.53
2018-04-25T06:13:28.376Z,15.53
2018-04-25T06:16:32.751Z,15.65
2018-04-25T06:19:36.220Z,15.78
2018-04-25T06:22:39.853Z,15.94
2018-04-25T06:25:43.175Z,16.05
2018-04-25T06:28:46.613Z,16.19
2018-04-25T06:31:50.040Z,16.28
2018-04-25T06:34:53.485Z,16.33
2018-04-25T06:37:56.775Z,16.49
2018-04-25T06:41:00.128Z,16.60
2018-04-25T06:44:03.444Z,16.61
2018-04-25T06:47:06.705Z,16.61
2018-04-25T06:50:10.099Z,16.64
2018-04-25T06:53:14.427Z,16.67
2018-04-25T06:56:18.749Z,16.73
2018-04-25T06:59:22.796Z,16.91
2018-04-25T07:02:26.193Z,17.09
2018-04-25T07:05:29.468Z,17.29
2018-04-25T07:08:32.881Z,17.50
2018-04-25T07:11:36.288Z,17.69
2018-04-25T07:14:39.552Z,17.82
2018-04-25T07:17:42.943Z,17.96
2018-04-25T07:20:46.336Z,18.15
2018-04-25T07:23:49.767Z,18.18
2018-04-25T07:26:53.423Z,18.40
2018-04-25T07:29:56.745Z,18.51
2018-04-25T07:33:00.085Z,18.60
2018-04-25T07:36:05.465Z,18.64
2018-04-25T07:39:08.789Z,18.66
2018-04-25T07:42:12.100Z,18.68
2018-04-25T07:45:15.628Z,18.65
2018-04-25T07:48:19.065Z,18.74
2018-04-25T07:51:23.452Z,18.65
2018-04-25T07:54:26.807Z,18.61
2018-04-25T07:57:30.125Z,18.67
2018-04-25T08:00:33.596Z,18.56
2018-04-25T08:03:36.923Z,18.63
2018-04-25T08:06:40.293Z,18.77
2018-04-25T08:09:44.607Z,18.80
2018-04-25T08:13:59.597Z,18.94
2018-04-25T08:18:16.164Z,18.88
2018-04-25T08:21:20.526Z,18.85
2018-04-25T08:24:24.888Z,18.82
2018-04-25T08:27:29.220Z,18.96
2018-04-25T08:30:32.580Z,19.08
2018-04-25T08:33:35.939Z,19.09
2018-04-25T08:36:39.149Z,18.91
2018-04-25T08:39:42.484Z,18.87
2018-04-25T08:42:45.819Z,18.93
2018-04-25T08:45:49.218Z,19.07
2018-04-25T08:48:53.859Z,19.32
2018-04-25T08:51:57.146Z,19.46
2018-04-25T08:55:00.481Z,19.41
2018-04-25T08:58:03.736Z,19.54
2018-04-25T09:01:07.085Z,19.75
2018-04-25T09:04:10.352Z,19.66
2018-04-25T09:07:13.730Z,19.50
2018-04-25T09:10:17.079Z,19.39
2018-04-25T09:13:20.509Z,19.33
2018-04-25T09:16:24.532Z,19.29
2018-04-25T09:19:27.850Z,19.33
2018-04-25T09:22:36.245Z,19.39
2018-04-25T09:25:39.696Z,19.34
2018-04-25T09:28:42.990Z,19.34
2018-04-25T09:31:46.250Z,19.39
2018-04-25T09:34:49.474Z,19.40
2018-04-25T09:37:53.719Z,19.19
2018-04-25T09:40:57.073Z,19.23
2018-04-25T09:44:00.450Z,19.25
2018-04-25T09:47:03.771Z,19.35
2018-04-25T09:50:07.241Z,19.66
2018-04-25T09:53:10.559Z,19.93
2018-04-25T09:56:13.849Z,20.07
2018-04-25T09:59:17.251Z,20.19
2018-04-25T10:02:24.800Z,20.45
2018-04-25T10:05:28.183Z,20.72
2018-04-25T10:08:31.561Z,20.79
2018-04-25T10:11:34.969Z,20.54
2018-04-25T10:14:38.234Z,20.60
2018-04-25T10:17:41.674Z,20.69
2018-04-25T10:20:46.031Z,20.71
2018-04-25T10:23:49.326Z,20.89
2018-04-25T10:26:52.704Z,21.00
2018-04-25T10:29:55.984Z,21.14
2018-04-25T10:32:59.301Z,20.98
2018-04-25T10:36:02.675Z,20.63
2018-04-25T10:39:05.866Z,20.55
2018-04-25T10:42:09.165Z,20.69
2018-04-25T10:45:12.532Z,20.75
2018-04-25T10:48:15.756Z,20.74
2018-04-25T10:51:19.109Z,20.60
2018-04-25T10:54:23.615Z,20.57
2018-04-25T10:57:26.848Z,20.48
2018-04-25T11:00:31.507Z,20.56
2018-04-25T11:03:35.036Z,20.51
2018-04-25T11:06:38.427Z,20.38
2018-04-25T11:09:41.681Z,20.15
2018-04-25T11:12:45.009Z,19.96
2018-04-25T11:15:48.190Z,19.91
2018-04-25T11:18:52.789Z,19.84
2018-04-25T11:21:56.039Z,19.84
2018-04-25T11:24:59.373Z,19.83
2018-04-25T11:28:02.692Z,19.78
2018-04-25T11:31:06.102Z,19.86
2018-04-25T11:34:09.365Z,19.84
2018-04-25T11:37:13.094Z,19.76
2018-04-25T11:40:16.728Z,19.71
2018-04-25T11:43:20.118Z,19.97
2018-04-25T11:46:24.130Z,20.28
2018-04-25T11:49:27.411Z,20.56
2018-04-25T11:52:30.979Z,20.73
2018-04-25T11:55:34.246Z,20.77
2018-04-25T11:58:37.564Z,21.09
2018-04-25T12:01:41.943Z,21.29
2018-04-25T12:04:45.322Z,21.41
2018-04-25T12:07:48.647Z,21.29
2018-04-25T12:10:52.525Z,21.41
2018-04-25T12:13:56.936Z,21.28
2018-04-25T12:17:00.385Z,21.10
2018-04-25T12:20:03.767Z,20.75
2018-04-25T12:23:07.446Z,20.62
2018-04-25T12:26:10.747Z,20.41
2018-04-25T12:29:14.167Z,20.34
2018-04-25T12:32:17.475Z,20.35
2018-04-25T12:35:20.772Z,20.32
2018-04-25T12:38:24.146Z,20.35
2018-04-25T12:41:27.424Z,20.38
2018-04-25T12:44:30.774Z,20.36
2018-04-25T12:47:34.075Z,20.23
2018-04-25T12:50:38.408Z,20.13
2018-04-25T12:53:41.680Z,20.30
2018-04-25T12:56:45.097Z,20.74
2018-04-25T12:59:51.639Z,20.82
2018-04-25T13:02:54.983Z,20.90
2018-04-25T13:05:58.372Z,20.76
2018-04-25T13:09:01.741Z,20.53
2018-04-25T13:12:05.067Z,20.72
2018-04-25T13:15:08.450Z,20.68
2018-04-25T13:18:12.900Z,20.59
2018-04-25T13:21:16.286Z,20.74
2018-04-25T13:24:20.632Z,20.62
2018-04-25T13:27:23.995Z,20.38
2018-04-25T13:30:27.299Z,20.02
2018-04-25T13:33:30.527Z,20.04
2018-04-25T13:36:33.774Z,19.81
2018-04-25T13:39:37.380Z,19.94
2018-04-25T13:42:40.688Z,20.04
2018-04-25T13:45:44.165Z,19.85
2018-04-25T13:48:47.620Z,19.79
2018-04-25T13:51:51.000Z,19.63
2018-04-25T13:54:54.483Z,19.52
2018-04-25T13:57:57.672Z,19.51
2018-04-25T14:01:00.961Z,19.52
2018-04-25T14:04:04.308Z,20.04
2018-04-25T14:07:07.768Z,20.62
2018-04-25T14:10:11.067Z,20.96
2018-04-25T14:13:14.423Z,21.03
2018-04-25T14:16:17.694Z,20.25
2018-04-25T14:19:20.924Z,19.80
2018-04-25T14:22:24.276Z,19.67
2018-04-25T14:25:28.714Z,20.01
2018-04-25T14:28:32.126Z,20.25
2018-04-25T14:31:35.525Z,20.41
2018-04-25T14:34:38.820Z,20.52
2018-04-25T14:37:42.227Z,20.68
2018-04-25T14:40:45.399Z,20.78
2018-04-25T14:43:48.695Z,20.95
2018-04-25T14:46:52.094Z,20.68
2018-04-25T14:49:55.377Z,20.43
2018-04-25T14:52:58.704Z,20.36
2018-04-25T14:56:02.085Z,20.36
2018-04-25T14:59:05.863Z,20.52
2018-04-25T15:02:09.353Z,20.70
2018-04-25T15:05:12.722Z,20.80
2018-04-25T15:08:16.011Z,20.92
2018-04-25T15:11:19.416Z,21.09
2018-04-25T15:14:23.791Z,21.04
2018-04-25T15:17:27.005Z,21.02
2018-04-25T15:20:30.401Z,21.24
2018-04-25T15:23:33.684Z,21.49
2018-04-25T15:26:37.187Z,21.59
2018-04-25T15:29:40.530Z,21.80
2018-04-25T15:32:45.341Z,21.89
2018-04-25T15:35:48.606Z,21.54
2018-04-25T15:38:51.937Z,21.82
2018-04-25T15:41:55.257Z,21.62
2018-04-25T15:44:58.679Z,21.65
2018-04-25T15:48:02.112Z,21.45
2018-04-25T15:51:06.059Z,21.39
2018-04-25T15:54:09.419Z,21.46
2018-04-25T15:57:12.740Z,21.61
2018-04-25T16:00:17.131Z,21.80
2018-04-25T16:03:20.516Z,21.73
2018-04-25T16:06:24.819Z,21.48
2018-04-25T16:09:28.214Z,21.50
2018-04-25T16:12:31.590Z,21.28
2018-04-25T16:15:35.972Z,21.30
2018-04-25T16:18:39.424Z,21.34
2018-04-25T16:21:42.726Z,21.12
2018-04-25T16:24:46.196Z,20.95
2018-04-25T16:27:49.479Z,21.06
2018-04-25T16:30:52.814Z,20.75
2018-04-25T16:33:57.164Z,20.61
2018-04-25T16:37:00.519Z,20.40
2018-04-25T16:40:04.792Z,20.20
2018-04-25T16:43:08.273Z,20.20
2018-04-25T16:46:11.461Z,20.16
2018-04-25T16:49:14.719Z,20.43
2018-04-25T16:52:18.005Z,20.51
2018-04-25T16:55:21.436Z,20.58
2018-04-25T16:58:25.058Z,20.65
2018-04-25T17:01:28.426Z,20.47
2018-04-25T17:04:31.752Z,20.23
2018-04-25T17:07:36.642Z,20.10
2018-04-25T17:10:40.063Z,20.07
2018-04-25T17:13:43.488Z,19.88
2018-04-25T17:16:46.652Z,19.85
2018-04-25T17:19:49.916Z,19.91
2018-04-25T17:22:57.037Z,19.76
2018-04-25T17:26:01.328Z,19.75
2018-04-25T17:29:05.380Z,19.73
2018-04-25T17:32:08.941Z,19.71
2018-04-25T17:35:12.289Z,19.41
2018-04-25T17:38:15.603Z,19.40
2018-04-25T17:41:19.042Z,19.28
2018-04-25T17:44:23.641Z,19.32
2018-04-25T17:47:27.032Z,19.31
2018-04-25T17:50:30.340Z,19.19
2018-04-25T17:53:33.615Z,19.10
2018-04-25T17:56:37.091Z,19.09
2018-04-25T17:59:40.361Z,18.86
2018-04-25T18:02:43.711Z,17.98
2018-04-25T18:05:47.092Z,17.31
2018-04-25T18:08:51.356Z,16.89
2018-04-25T18:11:54.688Z,16.87
2018-04-25T18:14:57.905Z,16.54
2018-04-25T18:18:01.963Z,16.23
2018-04-25T18:21:05.537Z,16.12
2018-04-25T18:24:08.983Z,15.90
2018-04-25T18:27:12.290Z,15.88
2018-04-25T18:30:16.608Z,15.95
2018-04-25T18:33:19.924Z,16.04
2018-04-25T18:36:24.157Z,15.86
2018-04-25T18:39:27.368Z,15.78
2018-04-25T18:42:30.872Z,15.91
2018-04-25T18:45:34.097Z,15.99
2018-04-25T18:48:37.376Z,15.98
2018-04-25T18:51:41.631Z,16.03
2018-04-25T18:54:44.840Z,15.84
2018-04-25T18:57:49.206Z,15.80
2018-04-25T19:00:53.433Z,15.95
2018-04-25T19:03:56.725Z,15.95
2018-04-25T19:07:00.205Z,15.91
2018-04-25T19:10:03.581Z,15.94
2018-04-25T19:13:06.824Z,15.89
2018-04-25T19:16:10.122Z,15.89
2018-04-25T19:19:13.350Z,15.72
2018-04-25T19:22:16.623Z,15.67
2018-04-25T19:25:19.889Z,15.83
2018-04-25T19:28:24.608Z,15.67
2018-04-25T19:31:27.970Z,15.75
2018-04-25T19:34:31.342Z,15.75
2018-04-25T19:37:34.812Z,15.68
2018-04-25T19:40:38.656Z,15.56
2018-04-25T19:43:42.228Z,15.55
2018-04-25T19:46:45.582Z,15.62
2018-04-25T19:49:49.248Z,15.49
2018-04-25T19:52:53.683Z,15.59
2018-04-25T19:55:57.093Z,15.45
2018-04-25T19:59:00.328Z,15.23
2018-04-25T20:02:03.559Z,14.92
2018-04-25T20:05:06.997Z,15.01
2018-04-25T20:08:10.263Z,15.15
2018-04-25T20:11:13.584Z,15.22
2018-04-25T20:14:16.779Z,15.17
2018-04-25T20:17:20.116Z,15.15
2018-04-25T20:20:24.631Z,15.07
2018-04-25T20:23:27.895Z,15.00
2018-04-25T20:26:31.275Z,14.87
2018-04-25T20:29:34.607Z,14.77
2018-04-25T20:32:37.996Z,14.80
2018-04-25T20:35:41.473Z,14.74
2018-04-25T20:38:44.763Z,14.75
2018-04-25T20:41:49.161Z,14.77
2018-04-25T20:44:53.284Z,14.77
2018-04-25T20:47:56.635Z,14.87
2018-04-25T20:50:59.848Z,15.02
2018-04-25T20:54:04.981Z,15.12
2018-04-25T20:57:09.092Z,15.14
2018-04-25T21:00:13.163Z,15.17
2018-04-25T21:03:17.009Z,15.08
2018-04-25T21:06:21.320Z,15.07
2018-04-25T21:09:25.506Z,14.97
2018-04-25T21:12:29.332Z,14.73
2018-04-25T21:15:32.983Z,14.87
2018-04-25T21:18:37.578Z,14.90
2018-04-25T21:21:40.906Z,14.92
2018-04-25T21:24:45.125Z,14.90
2018-04-25T21:27:48.253Z,14.77
2018-04-25T21:30:51.488Z,14.91
2018-04-25T21:33:54.768Z,14.76
2018-04-25T21:36:58.097Z,14.83
2018-04-25T21:40:01.389Z,14.77
2018-04-25T21:43:04.670Z,14.70
2018-04-25T21:46:08.473Z,14.70
2018-04-25T21:49:11.768Z,14.62
2018-04-25T21:52:16.140Z,14.56
2018-04-25T21:55:19.414Z,14.47
2018-04-25T21:58:22.718Z,14.48
2018-04-25T22:01:27.021Z,14.53
2018-04-25T22:04:30.228Z,14.48
2018-04-25T22:07:33.425Z,14.45
2018-04-25T22:10:36.833Z,14.36
2018-04-25T22:13:40.297Z,14.33
2018-04-25T22:16:43.937Z,14.39
2018-04-25T22:19:47.252Z,14.45
2018-04-25T22:22:50.624Z,14.44
2018-04-25T22:25:53.930Z,14.36
2018-04-25T22:28:57.348Z,14.29
2018-04-25T22:32:00.653Z,14.37
2018-04-25T22:35:04.023Z,14.22
2018-04-25T22:38:07.336Z,14.24
2018-04-25T22:41:10.638Z,14.30
2018-04-25T22:44:14.581Z,14.18
2018-04-25T22:47:17.712Z,14.21
2018-04-25T22:50:21.029Z,14.23
2018-04-25T22:53:24.259Z,14.28
2018-04-25T22:56:27.539Z,14.16
2018-04-25T22:59:30.803Z,14.26
2018-04-25T23:02:34.048Z,14.10
2018-04-25T23:05:37.255Z,14.05
2018-04-25T23:08:40.541Z,14.09
2018-04-25T23:11:44.129Z,14.20
2018-04-25T23:14:47.423Z,14.18
2018-04-25T23:17:50.744Z,14.10
2018-04-25T23:20:54.038Z,14.08
2018-04-25T23:23:57.295Z,14.07
2018-04-25T23:27:00.588Z,14.06
2018-04-25T23:30:03.892Z,13.93
2018-04-25T23:33:07.207Z,13.96
2018-04-25T23:36:10.530Z,14.03
2018-04-25T23:39:14.432Z,14.06
2018-04-25T23:42:17.693Z,14.11
2018-04-25T23:45:20.984Z,14.05
2018-04-25T23:48:24.259Z,14.06
2018-04-25T23:51:27.610Z,14.05
2018-04-25T23:54:30.953Z,14.00
2018-04-25T23:57:34.296Z,14.05
